sensor_id;sensor_type;location;lat;lon;timestamp;pressure;altitude;pressure_sealevel;temperature;humidity
4814;BME280;15375;48.540;9.268;2023-04-27T00:01:13;97389.75;;;7.29;100.00
4814;BME280;15375;48.540;9.268;2023-04-27T00:03:40;97396.34;;;7.25;100.00
4814;BME280;15375;48.540;9.268;2023-04-27T00:06:07;97418.75;;;7.43;100.00
4814;BME280;15375;48.540;9.268;2023-04-27T00:08:32;97411.00;;;7.45;100.00
4814;BME280;15375;48.540;9.268;2023-04-27T00:10:58;97415.63;;;7.51;100.00
4814;BME280;15375;48.540;9.268;2023-04-27T00:13:23;97395.88;;;7.44;100.00
4814;BME280;15375;48.540;9.268;2023-04-27T00:15:49;97363.41;;;7.30;100.00
4814;BME280;15375;48.540;9.268;2023-04-27T00:18:14;97381.56;;;7.36;100.00
4814;BME280;15375;48.540;9.268;2023-04-27T00:20:39;97392.34;;;7.54;100.00
4814;BME280;15375;48.540;9.268;2023-04-27T00:23:05;97397.03;;;7.50;100.00
4814;BME280;15375;48.540;9.268;2023-04-27T00:25:31;97404.75;;;7.55;100.00
4814;BME280;15375;48.540;9.268;2023-04-27T00:27:56;97361.44;;;7.30;100.00
4814;BME280;15375;48.540;9.268;2023-04-27T00:30:21;97373.03;;;7.38;100.00
4814;BME280;15375;48.540;9.268;2023-04-27T00:32:47;97370.72;;;7.36;100.00
4814;BME280;15375;48.540;9.268;2023-04-27T00:35:12;97366.47;;;7.32;100.00
4814;BME280;15375;48.540;9.268;2023-04-27T00:37:37;97380.41;;;7.37;100.00
4814;BME280;15375;48.540;9.268;2023-04-27T00:40:04;97414.88;;;7.44;100.00
4814;BME280;15375;48.540;9.268;2023-04-27T00:42:33;97398.25;;;7.35;100.00
4814;BME280;15375;48.540;9.268;2023-04-27T00:44:59;97396.28;;;7.39;100.00
4814;BME280;15375;48.540;9.268;2023-04-27T00:47:25;97384.38;;;7.08;100.00
4814;BME280;15375;48.540;9.268;2023-04-27T00:49:51;97392.91;;;7.17;100.00
4814;BME280;15375;48.540;9.268;2023-04-27T00:52:17;97377.03;;;7.05;100.00
4814;BME280;15375;48.540;9.268;2023-04-27T00:54:42;97396.00;;;7.16;100.00
4814;BME280;15375;48.540;9.268;2023-04-27T00:57:08;97399.88;;;7.11;100.00
4814;BME280;15375;48.540;9.268;2023-04-27T00:59:34;97381.72;;;7.01;100.00
4814;BME280;15375;48.540;9.268;2023-04-27T01:02:00;97385.94;;;7.05;100.00
4814;BME280;15375;48.540;9.268;2023-04-27T01:04:25;97392.16;;;7.10;100.00
4814;BME280;15375;48.540;9.268;2023-04-27T01:06:53;97373.56;;;6.97;100.00
4814;BME280;15375;48.540;9.268;2023-04-27T01:09:18;97372.03;;;6.96;100.00
4814;BME280;15375;48.540;9.268;2023-04-27T01:11:47;97317.56;;;6.59;100.00
4814;BME280;15375;48.540;9.268;2023-04-27T01:14:12;97380.56;;;7.02;100.00
4814;BME280;15375;48.540;9.268;2023-04-27T01:16:38;97371.25;;;6.96;100.00
4814;BME280;15375;48.540;9.268;2023-04-27T01:19:03;97368.56;;;6.92;100.00
4814;BME280;15375;48.540;9.268;2023-04-27T01:21:29;97368.59;;;6.82;100.00
4814;BME280;15375;48.540;9.268;2023-04-27T01:23:55;97346.56;;;6.62;100.00
4814;BME280;15375;48.540;9.268;2023-04-27T01:26:20;97371.34;;;6.64;100.00
4814;BME280;15375;48.540;9.268;2023-04-27T01:28:46;97343.50;;;6.42;100.00
4814;BME280;15375;48.540;9.268;2023-04-27T01:31:12;97396.09;;;6.70;100.00
4814;BME280;15375;48.540;9.268;2023-04-27T01:33:38;97383.75;;;6.58;100.00
4814;BME280;15375;48.540;9.268;2023-04-27T01:36:04;97381.06;;;6.51;100.00
4814;BME280;15375;48.540;9.268;2023-04-27T01:38:31;97400.00;;;6.55;100.00
4814;BME280;15375;48.540;9.268;2023-04-27T01:40:57;97372.56;;;6.21;100.00
4814;BME280;15375;48.540;9.268;2023-04-27T01:43:26;97386.09;;;6.28;100.00
4814;BME280;15375;48.540;9.268;2023-04-27T01:45:52;97390.75;;;6.31;100.00
4814;BME280;15375;48.540;9.268;2023-04-27T01:48:17;97383.75;;;6.37;100.00
4814;BME280;15375;48.540;9.268;2023-04-27T01:50:42;97377.56;;;6.47;100.00
4814;BME280;15375;48.540;9.268;2023-04-27T01:53:08;97390.31;;;6.61;100.00
4814;BME280;15375;48.540;9.268;2023-04-27T01:55:33;97361.69;;;6.46;100.00
4814;BME280;15375;48.540;9.268;2023-04-27T01:57:59;97370.22;;;6.51;100.00
4814;BME280;15375;48.540;9.268;2023-04-27T02:00:24;97372.13;;;6.47;100.00
4814;BME280;15375;48.540;9.268;2023-04-27T02:02:49;97392.25;;;6.60;100.00
4814;BME280;15375;48.540;9.268;2023-04-27T02:05:17;97380.66;;;6.49;100.00
4814;BME280;15375;48.540;9.268;2023-04-27T02:07:43;97405.03;;;6.56;100.00
4814;BME280;15375;48.540;9.268;2023-04-27T02:10:09;97380.28;;;6.22;100.00
4814;BME280;15375;48.540;9.268;2023-04-27T02:12:35;97408.94;;;6.34;100.00
4814;BME280;15375;48.540;9.268;2023-04-27T02:15:00;97406.97;;;6.17;100.00
4814;BME280;15375;48.540;9.268;2023-04-27T02:17:27;97413.94;;;6.18;100.00
4814;BME280;15375;48.540;9.268;2023-04-27T02:19:53;97381.81;;;6.02;100.00
4814;BME280;15375;48.540;9.268;2023-04-27T02:22:18;97398.47;;;6.15;100.00
4814;BME280;15375;48.540;9.268;2023-04-27T02:24:43;97404.69;;;6.19;100.00
4814;BME280;15375;48.540;9.268;2023-04-27T02:27:09;97403.13;;;6.18;100.00
4814;BME280;15375;48.540;9.268;2023-04-27T02:29:34;97380.69;;;6.10;100.00
4814;BME280;15375;48.540;9.268;2023-04-27T02:32:04;97352.38;;;5.79;100.00
4814;BME280;15375;48.540;9.268;2023-04-27T02:34:29;97406.97;;;6.10;100.00
4814;BME280;15375;48.540;9.268;2023-04-27T02:36:55;97379.09;;;5.85;100.00
4814;BME280;15375;48.540;9.268;2023-04-27T02:39:20;97392.66;;;6.02;100.00
4814;BME280;15375;48.540;9.268;2023-04-27T02:41:45;97418.97;;;6.16;100.00
4814;BME280;15375;48.540;9.268;2023-04-27T02:44:11;97397.66;;;5.97;100.00
4814;BME280;15375;48.540;9.268;2023-04-27T02:46:36;97417.81;;;6.03;100.00
4814;BME280;15375;48.540;9.268;2023-04-27T02:49:01;97418.59;;;6.03;100.00
4814;BME280;15375;48.540;9.268;2023-04-27T02:51:27;97369.00;;;5.74;100.00
4814;BME280;15375;48.540;9.268;2023-04-27T02:53:52;97430.19;;;6.11;100.00
4814;BME280;15375;48.540;9.268;2023-04-27T02:56:18;97410.06;;;5.98;100.00
4814;BME280;15375;48.540;9.268;2023-04-27T02:58:43;97393.03;;;5.87;100.00
4814;BME280;15375;48.540;9.268;2023-04-27T03:01:09;97434.84;;;6.10;100.00
4814;BME280;15375;48.540;9.268;2023-04-27T03:03:34;97392.25;;;5.90;100.00
4814;BME280;15375;48.540;9.268;2023-04-27T03:06:00;97418.59;;;6.03;100.00
4814;BME280;15375;48.540;9.268;2023-04-27T03:08:25;97406.97;;;5.96;100.00
4814;BME280;15375;48.540;9.268;2023-04-27T03:10:50;97379.09;;;5.81;100.00
4814;BME280;15375;48.540;9.268;2023-04-27T03:13:16;97419.72;;;6.09;100.00
4814;BME280;15375;48.540;9.268;2023-04-27T03:15:41;97428.66;;;6.13;100.00
4814;BME280;15375;48.540;9.268;2023-04-27T03:18:07;97430.97;;;6.18;100.00
4814;BME280;15375;48.540;9.268;2023-04-27T03:20:32;97411.25;;;6.11;100.00
4814;BME280;15375;48.540;9.268;2023-04-27T03:22:57;97425.16;;;6.20;100.00
4814;BME280;15375;48.540;9.268;2023-04-27T03:25:23;97417.06;;;6.16;100.00
4814;BME280;15375;48.540;9.268;2023-04-27T03:27:48;97401.97;;;6.08;100.00
4814;BME280;15375;48.540;9.268;2023-04-27T03:30:13;97390.72;;;6.03;100.00
4814;BME280;15375;48.540;9.268;2023-04-27T03:32:39;97410.44;;;6.07;100.00
4814;BME280;15375;48.540;9.268;2023-04-27T03:35:05;97420.53;;;6.13;100.00
4814;BME280;15375;48.540;9.268;2023-04-27T03:37:30;97420.91;;;6.15;100.00
4814;BME280;15375;48.540;9.268;2023-04-27T03:39:56;97419.75;;;6.16;100.00
4814;BME280;15375;48.540;9.268;2023-04-27T03:42:22;97430.56;;;6.20;100.00
4814;BME280;15375;48.540;9.268;2023-04-27T03:44:47;97389.19;;;5.98;100.00
4814;BME280;15375;48.540;9.268;2023-04-27T03:47:12;97419.38;;;6.25;100.00
4814;BME280;15375;48.540;9.268;2023-04-27T03:49:38;97403.13;;;6.18;100.00
4814;BME280;15375;48.540;9.268;2023-04-27T03:52:03;97426.72;;;6.28;100.00
4814;BME280;15375;48.540;9.268;2023-04-27T03:54:32;97406.22;;;6.20;100.00
4814;BME280;15375;48.540;9.268;2023-04-27T03:56:57;97430.19;;;6.32;100.00
4814;BME280;15375;48.540;9.268;2023-04-27T03:59:23;97442.19;;;6.38;100.00
4814;BME280;15375;48.540;9.268;2023-04-27T04:01:48;97418.59;;;6.28;100.00
4814;BME280;15375;48.540;9.268;2023-04-27T04:04:13;97415.13;;;6.24;100.00
4814;BME280;15375;48.540;9.268;2023-04-27T04:06:39;97379.13;;;5.99;100.00
4814;BME280;15375;48.540;9.268;2023-04-27T04:09:04;97431.34;;;6.34;100.00
4814;BME280;15375;48.540;9.268;2023-04-27T04:11:30;97433.69;;;6.43;100.00
4814;BME280;15375;48.540;9.268;2023-04-27T04:13:55;97432.91;;;6.46;100.00
4814;BME280;15375;48.540;9.268;2023-04-27T04:16:20;97408.53;;;6.32;100.00
4814;BME280;15375;48.540;9.268;2023-04-27T04:18:46;97430.22;;;6.35;100.00
4814;BME280;15375;48.540;9.268;2023-04-27T04:21:11;97436.41;;;6.43;100.00
4814;BME280;15375;48.540;9.268;2023-04-27T04:23:37;97412.03;;;6.29;100.00
4814;BME280;15375;48.540;9.268;2023-04-27T04:26:03;97436.00;;;6.44;100.00
4814;BME280;15375;48.540;9.268;2023-04-27T04:28:28;97410.88;;;6.33;100.00
4814;BME280;15375;48.540;9.268;2023-04-27T04:30:54;97442.56;;;6.47;100.00
4814;BME280;15375;48.540;9.268;2023-04-27T04:33:20;97405.81;;;6.32;100.00
4814;BME280;15375;48.540;9.268;2023-04-27T04:35:46;97420.16;;;6.43;100.00
4814;BME280;15375;48.540;9.268;2023-04-27T04:38:12;97449.16;;;6.67;100.00
4814;BME280;15375;48.540;9.268;2023-04-27T04:40:38;97436.00;;;6.59;100.00
4814;BME280;15375;48.540;9.268;2023-04-27T04:43:04;97449.56;;;6.66;100.00
4814;BME280;15375;48.540;9.268;2023-04-27T04:45:29;97444.53;;;6.61;100.00
4814;BME280;15375;48.540;9.268;2023-04-27T04:47:55;97441.78;;;6.68;100.00
4814;BME280;15375;48.540;9.268;2023-04-27T04:50:20;97431.75;;;6.58;100.00
4814;BME280;15375;48.540;9.268;2023-04-27T04:52:47;97436.38;;;6.75;100.00
4814;BME280;15375;48.540;9.268;2023-04-27T04:55:12;97444.09;;;6.83;100.00
4814;BME280;15375;48.540;9.268;2023-04-27T04:57:38;97406.97;;;6.52;100.00
4814;BME280;15375;48.540;9.268;2023-04-27T05:00:04;97441.78;;;6.78;100.00
4814;BME280;15375;48.540;9.268;2023-04-27T05:02:40;97434.81;;;6.77;100.00
4814;BME280;15375;48.540;9.268;2023-04-27T05:05:06;97458.81;;;6.96;100.00
4814;BME280;15375;48.540;9.268;2023-04-27T05:07:32;97426.69;;;6.84;100.00
4814;BME280;15375;48.540;9.268;2023-04-27T05:09:57;97446.78;;;6.97;100.00
4814;BME280;15375;48.540;9.268;2023-04-27T05:12:23;97435.53;;;7.06;100.00
4814;BME280;15375;48.540;9.268;2023-04-27T05:14:50;97422.38;;;7.04;100.00
4814;BME280;15375;48.540;9.268;2023-04-27T05:17:15;97420.81;;;7.03;100.00
4814;BME280;15375;48.540;9.268;2023-04-27T05:19:40;97423.16;;;7.01;99.84
4814;BME280;15375;48.540;9.268;2023-04-27T05:22:06;97444.38;;;7.35;98.40
4814;BME280;15375;48.540;9.268;2023-04-27T05:24:32;97411.09;;;7.17;98.54
4814;BME280;15375;48.540;9.268;2023-04-27T05:26:58;97450.84;;;7.62;96.90
4814;BME280;15375;48.540;9.268;2023-04-27T05:29:23;97442.16;;;7.88;96.29
4814;BME280;15375;48.540;9.268;2023-04-27T05:31:49;97431.28;;;7.95;93.36
4814;BME280;15375;48.540;9.268;2023-04-27T05:34:14;97435.78;;;8.16;91.59
4814;BME280;15375;48.540;9.268;2023-04-27T05:36:39;97428.38;;;8.30;90.35
4814;BME280;15375;48.540;9.268;2023-04-27T05:39:08;97431.50;;;8.18;89.35
4814;BME280;15375;48.540;9.268;2023-04-27T05:41:33;97435.31;;;8.35;88.04
4814;BME280;15375;48.540;9.268;2023-04-27T05:43:59;97461.78;;;8.75;88.80
4814;BME280;15375;48.540;9.268;2023-04-27T05:46:24;97420.50;;;8.84;86.48
4814;BME280;15375;48.540;9.268;2023-04-27T05:48:50;97440.72;;;9.24;84.94
4814;BME280;15375;48.540;9.268;2023-04-27T05:51:15;97419.25;;;9.29;81.13
4814;BME280;15375;48.540;9.268;2023-04-27T05:53:40;97401.19;;;9.73;80.90
4814;BME280;15375;48.540;9.268;2023-04-27T05:56:06;97441.31;;;10.75;74.82
4814;BME280;15375;48.540;9.268;2023-04-27T05:58:32;97452.53;;;11.04;71.30
4814;BME280;15375;48.540;9.268;2023-04-27T06:00:58;97433.38;;;11.86;68.74
4814;BME280;15375;48.540;9.268;2023-04-27T06:03:24;97439.34;;;11.81;67.00
4814;BME280;15375;48.540;9.268;2023-04-27T06:05:56;97431.13;;;12.17;65.56
4814;BME280;15375;48.540;9.268;2023-04-27T06:08:22;97436.69;;;12.94;60.81
4814;BME280;15375;48.540;9.268;2023-04-27T06:10:49;97467.94;;;12.80;65.58
4814;BME280;15375;48.540;9.268;2023-04-27T06:13:14;97466.47;;;12.92;68.16
4814;BME280;15375;48.540;9.268;2023-04-27T06:15:40;97482.72;;;12.67;70.24
4814;BME280;15375;48.540;9.268;2023-04-27T06:18:05;97458.16;;;12.31;67.51
4814;BME280;15375;48.540;9.268;2023-04-27T06:20:31;97468.69;;;11.97;65.37
4814;BME280;15375;48.540;9.268;2023-04-27T06:22:57;97484.16;;;11.64;66.86
4814;BME280;15375;48.540;9.268;2023-04-27T06:25:24;97470.91;;;10.54;66.90
4814;BME280;15375;48.540;9.268;2023-04-27T06:27:49;97460.28;;;10.06;70.69
4814;BME280;15375;48.540;9.268;2023-04-27T06:30:15;97481.19;;;10.69;71.76
4814;BME280;15375;48.540;9.268;2023-04-27T06:32:40;97498.44;;;11.32;73.86
4814;BME280;15375;48.540;9.268;2023-04-27T06:35:06;97478.25;;;11.46;76.70
4814;BME280;15375;48.540;9.268;2023-04-27T06:37:31;97477.28;;;11.56;73.14
4814;BME280;15375;48.540;9.268;2023-04-27T06:39:57;97502.06;;;11.69;73.93
4814;BME280;15375;48.540;9.268;2023-04-27T06:42:22;97501.22;;;11.72;76.01
4814;BME280;15375;48.540;9.268;2023-04-27T06:44:48;97468.13;;;11.66;72.87
4814;BME280;15375;48.540;9.268;2023-04-27T06:47:13;97490.81;;;11.63;72.32
4814;BME280;15375;48.540;9.268;2023-04-27T06:49:38;97472.22;;;11.78;71.07
4814;BME280;15375;48.540;9.268;2023-04-27T06:52:04;97485.31;;;11.86;71.66
4814;BME280;15375;48.540;9.268;2023-04-27T06:54:29;97470.16;;;12.01;72.44
4814;BME280;15375;48.540;9.268;2023-04-27T06:56:55;97472.56;;;11.80;72.79
4814;BME280;15375;48.540;9.268;2023-04-27T06:59:20;97488.38;;;12.08;71.14
4814;BME280;15375;48.540;9.268;2023-04-27T07:01:46;97496.91;;;12.46;68.05
4814;BME280;15375;48.540;9.268;2023-04-27T07:04:11;97481.34;;;12.43;69.06
4814;BME280;15375;48.540;9.268;2023-04-27T07:06:36;97480.00;;;12.15;66.58
4814;BME280;15375;48.540;9.268;2023-04-27T07:09:02;97478.84;;;12.32;66.69
4814;BME280;15375;48.540;9.268;2023-04-27T07:11:30;97481.38;;;12.91;62.68
4814;BME280;15375;48.540;9.268;2023-04-27T07:13:55;97475.13;;;13.07;63.98
4814;BME280;15375;48.540;9.268;2023-04-27T07:16:21;97483.69;;;13.54;60.64
4814;BME280;15375;48.540;9.268;2023-04-27T07:18:46;97480.50;;;13.96;61.09
4814;BME280;15375;48.540;9.268;2023-04-27T07:21:11;97484.09;;;14.35;57.59
4814;BME280;15375;48.540;9.268;2023-04-27T07:23:38;97480.69;;;14.31;58.55
4814;BME280;15375;48.540;9.268;2023-04-27T07:26:04;97478.28;;;13.50;57.51
4814;BME280;15375;48.540;9.268;2023-04-27T07:28:30;97466.25;;;14.01;57.29
4814;BME280;15375;48.540;9.268;2023-04-27T07:30:55;97462.53;;;14.84;55.63
4814;BME280;15375;48.540;9.268;2023-04-27T07:33:22;97466.66;;;15.13;52.53
4814;BME280;15375;48.540;9.268;2023-04-27T07:35:47;97475.25;;;15.03;53.66
4814;BME280;15375;48.540;9.268;2023-04-27T07:38:14;97448.53;;;15.50;53.82
4814;BME280;15375;48.540;9.268;2023-04-27T07:40:41;97457.19;;;16.93;50.39
4814;BME280;15375;48.540;9.268;2023-04-27T07:43:06;97472.22;;;17.19;49.14
4814;BME280;15375;48.540;9.268;2023-04-27T07:45:33;97453.06;;;16.18;49.07
4814;BME280;15375;48.540;9.268;2023-04-27T07:48:03;97450.13;;;16.13;49.48
4814;BME280;15375;48.540;9.268;2023-04-27T07:50:29;97449.78;;;16.41;46.93
4814;BME280;15375;48.540;9.268;2023-04-27T07:52:55;97448.53;;;16.64;46.43
4814;BME280;15375;48.540;9.268;2023-04-27T07:55:22;97453.59;;;16.35;46.07
4814;BME280;15375;48.540;9.268;2023-04-27T07:57:48;97475.09;;;16.98;44.11
4814;BME280;15375;48.540;9.268;2023-04-27T08:00:14;97481.56;;;16.03;45.36
4814;BME280;15375;48.540;9.268;2023-04-27T08:02:40;97493.41;;;16.43;47.56
4814;BME280;15375;48.540;9.268;2023-04-27T08:05:05;97475.75;;;16.31;47.51
4814;BME280;15375;48.540;9.268;2023-04-27T08:07:33;97468.50;;;16.86;45.89
4814;BME280;15375;48.540;9.268;2023-04-27T08:09:58;97476.50;;;17.11;45.22
4814;BME280;15375;48.540;9.268;2023-04-27T08:12:24;97463.19;;;17.92;45.63
4814;BME280;15375;48.540;9.268;2023-04-27T08:14:49;97459.81;;;18.57;44.42
4814;BME280;15375;48.540;9.268;2023-04-27T08:17:14;97470.47;;;16.86;44.55
4814;BME280;15375;48.540;9.268;2023-04-27T08:19:42;97464.22;;;16.94;46.45
4814;BME280;15375;48.540;9.268;2023-04-27T08:22:07;97479.31;;;17.84;44.51
4814;BME280;15375;48.540;9.268;2023-04-27T08:24:32;97460.75;;;17.75;45.75
4814;BME280;15375;48.540;9.268;2023-04-27T08:26:58;97467.66;;;17.89;45.98
4814;BME280;15375;48.540;9.268;2023-04-27T08:29:23;97450.97;;;17.74;46.17
4814;BME280;15375;48.540;9.268;2023-04-27T08:31:49;97448.84;;;16.66;46.41
4814;BME280;15375;48.540;9.268;2023-04-27T08:34:14;97457.47;;;15.63;48.39
4814;BME280;15375;48.540;9.268;2023-04-27T08:36:40;97450.53;;;16.33;47.46
4814;BME280;15375;48.540;9.268;2023-04-27T08:39:06;97450.84;;;16.35;47.33
4814;BME280;15375;48.540;9.268;2023-04-27T08:41:32;97442.22;;;17.21;47.46
4814;BME280;15375;48.540;9.268;2023-04-27T08:43:58;97460.28;;;17.86;45.23
4814;BME280;15375;48.540;9.268;2023-04-27T08:46:24;97442.06;;;17.25;45.29
4814;BME280;15375;48.540;9.268;2023-04-27T08:48:53;97453.25;;;16.54;45.98
4814;BME280;15375;48.540;9.268;2023-04-27T08:51:20;97460.31;;;16.34;48.46
4814;BME280;15375;48.540;9.268;2023-04-27T08:53:53;97455.44;;;16.38;48.11
4814;BME280;15375;48.540;9.268;2023-04-27T08:56:19;97457.72;;;16.61;48.34
4814;BME280;15375;48.540;9.268;2023-04-27T08:58:47;97435.44;;;16.86;46.89
4814;BME280;15375;48.540;9.268;2023-04-27T09:01:13;97454.19;;;17.37;46.07
4814;BME280;15375;48.540;9.268;2023-04-27T09:03:38;97434.88;;;17.82;44.57
4814;BME280;15375;48.540;9.268;2023-04-27T09:06:04;97430.44;;;18.26;44.21
4814;BME280;15375;48.540;9.268;2023-04-27T09:08:49;97430.09;;;17.92;43.55
4814;BME280;15375;48.540;9.268;2023-04-27T09:11:27;97437.97;;;18.68;43.74
4814;BME280;15375;48.540;9.268;2023-04-27T09:13:53;97442.94;;;18.55;44.04
4814;BME280;15375;48.540;9.268;2023-04-27T09:16:25;97434.03;;;18.51;43.16
4814;BME280;15375;48.540;9.268;2023-04-27T09:18:52;97438.38;;;17.82;43.94
4814;BME280;15375;48.540;9.268;2023-04-27T09:21:29;97457.56;;;17.77;43.85
4814;BME280;15375;48.540;9.268;2023-04-27T09:23:55;97448.00;;;17.14;43.01
4814;BME280;15375;48.540;9.268;2023-04-27T09:26:22;97444.63;;;16.92;43.66
4814;BME280;15375;48.540;9.268;2023-04-27T09:28:50;97428.13;;;16.13;44.97
4814;BME280;15375;48.540;9.268;2023-04-27T09:31:16;97453.63;;;16.44;45.22
4814;BME280;15375;48.540;9.268;2023-04-27T09:33:42;97456.44;;;17.11;44.17
4814;BME280;15375;48.540;9.268;2023-04-27T09:36:08;97444.00;;;16.88;43.94
4814;BME280;15375;48.540;9.268;2023-04-27T09:38:34;97445.91;;;16.21;44.98
4814;BME280;15375;48.540;9.268;2023-04-27T09:41:00;97449.84;;;16.50;46.48
4814;BME280;15375;48.540;9.268;2023-04-27T09:43:25;97438.63;;;16.36;46.72
4814;BME280;15375;48.540;9.268;2023-04-27T09:45:53;97429.13;;;16.37;46.10
4814;BME280;15375;48.540;9.268;2023-04-27T09:48:20;97450.81;;;17.60;46.95
4814;BME280;15375;48.540;9.268;2023-04-27T09:50:47;97438.59;;;18.63;45.46
4814;BME280;15375;48.540;9.268;2023-04-27T09:53:14;97424.91;;;19.39;41.54
4814;BME280;15375;48.540;9.268;2023-04-27T10:01:45;97430.41;;;17.84;42.41
4814;BME280;15375;48.540;9.268;2023-04-27T10:07:14;97439.75;;;17.78;42.97
4814;BME280;15375;48.540;9.268;2023-04-27T10:09:41;97443.34;;;18.95;43.91
4814;BME280;15375;48.540;9.268;2023-04-27T10:12:18;97416.91;;;18.94;41.74
4814;BME280;15375;48.540;9.268;2023-04-27T10:17:12;97425.13;;;18.14;45.13
4814;BME280;15375;48.540;9.268;2023-04-27T10:19:38;97411.53;;;18.34;43.34
4814;BME280;15375;48.540;9.268;2023-04-27T10:22:03;97420.41;;;18.47;43.09
4814;BME280;15375;48.540;9.268;2023-04-27T10:24:33;97439.66;;;18.23;44.70
4814;BME280;15375;48.540;9.268;2023-04-27T10:27:07;97417.38;;;18.69;44.73
4814;BME280;15375;48.540;9.268;2023-04-27T10:29:37;97439.66;;;19.36;45.94
4814;BME280;15375;48.540;9.268;2023-04-27T10:32:11;97439.75;;;19.65;47.31
4814;BME280;15375;48.540;9.268;2023-04-27T10:34:37;97420.38;;;19.80;42.57
4814;BME280;15375;48.540;9.268;2023-04-27T10:37:05;97412.19;;;20.00;39.81
4814;BME280;15375;48.540;9.268;2023-04-27T10:39:39;97423.56;;;19.11;41.15
4814;BME280;15375;48.540;9.268;2023-04-27T10:42:05;97413.78;;;19.01;41.96
4814;BME280;15375;48.540;9.268;2023-04-27T10:44:33;97419.84;;;19.14;42.47
4814;BME280;15375;48.540;9.268;2023-04-27T10:47:00;97426.31;;;18.22;42.53
4814;BME280;15375;48.540;9.268;2023-04-27T10:49:27;97427.09;;;18.22;44.17
4814;BME280;15375;48.540;9.268;2023-04-27T10:51:53;97417.38;;;17.85;43.44
4814;BME280;15375;48.540;9.268;2023-04-27T10:54:25;97403.78;;;17.09;44.57
4814;BME280;15375;48.540;9.268;2023-04-27T10:56:51;97420.47;;;17.60;44.57
4814;BME280;15375;48.540;9.268;2023-04-27T10:59:16;97414.22;;;18.19;43.04
4814;BME280;15375;48.540;9.268;2023-04-27T11:01:47;97404.31;;;18.36;43.47
4814;BME280;15375;48.540;9.268;2023-04-27T11:04:13;97390.03;;;18.71;42.10
4814;BME280;15375;48.540;9.268;2023-04-27T11:06:43;97402.97;;;19.12;41.98
4814;BME280;15375;48.540;9.268;2023-04-27T11:09:10;97400.31;;;18.46;42.94
4814;BME280;15375;48.540;9.268;2023-04-27T11:11:35;97379.56;;;18.98;43.89
4814;BME280;15375;48.540;9.268;2023-04-27T11:14:01;97402.53;;;19.66;45.22
4814;BME280;15375;48.540;9.268;2023-04-27T11:16:28;97402.13;;;20.17;44.99
4814;BME280;15375;48.540;9.268;2023-04-27T11:18:53;97397.75;;;19.52;44.10
4814;BME280;15375;48.540;9.268;2023-04-27T11:21:19;97408.66;;;19.70;43.28
4814;BME280;15375;48.540;9.268;2023-04-27T11:23:45;97412.63;;;18.93;42.09
4814;BME280;15375;48.540;9.268;2023-04-27T11:26:18;97410.41;;;18.08;43.75
4814;BME280;15375;48.540;9.268;2023-04-27T11:29:05;97415.06;;;18.34;43.88
4814;BME280;15375;48.540;9.268;2023-04-27T11:31:44;97404.66;;;18.29;43.79
4814;BME280;15375;48.540;9.268;2023-04-27T11:34:20;97409.72;;;18.64;42.55
4814;BME280;15375;48.540;9.268;2023-04-27T11:37:02;97395.50;;;19.03;42.13
4814;BME280;15375;48.540;9.268;2023-04-27T11:39:36;97393.38;;;19.22;43.84
4814;BME280;15375;48.540;9.268;2023-04-27T11:44:40;97396.97;;;19.52;45.02
4814;BME280;15375;48.540;9.268;2023-04-27T11:47:06;97387.66;;;19.79;44.18
4814;BME280;15375;48.540;9.268;2023-04-27T11:49:33;97391.16;;;20.08;40.73
4814;BME280;15375;48.540;9.268;2023-04-27T11:52:01;97381.13;;;19.38;40.35
4814;BME280;15375;48.540;9.268;2023-04-27T11:54:27;97396.34;;;17.88;43.22
4814;BME280;15375;48.540;9.268;2023-04-27T11:57:03;97411.63;;;18.58;43.36
4814;BME280;15375;48.540;9.268;2023-04-27T11:59:29;97403.09;;;19.18;43.84
4814;BME280;15375;48.540;9.268;2023-04-27T12:01:55;97367.31;;;19.52;42.05
4814;BME280;15375;48.540;9.268;2023-04-27T12:04:20;97390.13;;;18.85;42.70
4814;BME280;15375;48.540;9.268;2023-04-27T12:06:46;97395.66;;;18.20;44.40
4814;BME280;15375;48.540;9.268;2023-04-27T12:09:11;97402.38;;;17.77;43.91
4814;BME280;15375;48.540;9.268;2023-04-27T12:11:37;97345.06;;;17.72;45.11
4814;BME280;15375;48.540;9.268;2023-04-27T12:14:02;97386.69;;;18.67;43.90
4814;BME280;15375;48.540;9.268;2023-04-27T12:16:28;97366.34;;;18.79;42.15
4814;BME280;15375;48.540;9.268;2023-04-27T12:18:53;97368.81;;;18.53;42.54
4814;BME280;15375;48.540;9.268;2023-04-27T12:21:19;97375.81;;;19.78;42.75
4814;BME280;15375;48.540;9.268;2023-04-27T12:23:45;97373.50;;;20.06;43.53
4814;BME280;15375;48.540;9.268;2023-04-27T12:26:12;97366.47;;;20.54;40.95
4814;BME280;15375;48.540;9.268;2023-04-27T12:28:38;97362.22;;;20.09;38.20
4814;BME280;15375;48.540;9.268;2023-04-27T12:31:12;97325.56;;;20.69;40.03
4814;BME280;15375;48.540;9.268;2023-04-27T12:33:37;97337.84;;;21.03;42.84
4814;BME280;15375;48.540;9.268;2023-04-27T12:36:03;97340.81;;;21.20;39.06
4814;BME280;15375;48.540;9.268;2023-04-27T12:38:28;97362.31;;;21.05;39.24
4814;BME280;15375;48.540;9.268;2023-04-27T12:40:53;97367.31;;;21.00;40.58
4814;BME280;15375;48.540;9.268;2023-04-27T12:43:19;97362.41;;;20.35;40.25
4814;BME280;15375;48.540;9.268;2023-04-27T12:45:44;97369.56;;;20.27;40.97
4814;BME280;15375;48.540;9.268;2023-04-27T12:48:10;97375.22;;;19.45;40.54
4814;BME280;15375;48.540;9.268;2023-04-27T12:50:36;97373.34;;;19.65;41.70
4814;BME280;15375;48.540;9.268;2023-04-27T12:53:02;97374.19;;;18.80;41.80
4814;BME280;15375;48.540;9.268;2023-04-27T12:55:27;97365.56;;;19.02;42.68
4814;BME280;15375;48.540;9.268;2023-04-27T12:57:53;97354.72;;;18.51;42.02
4814;BME280;15375;48.540;9.268;2023-04-27T13:00:19;97341.19;;;18.53;41.88
4814;BME280;15375;48.540;9.268;2023-04-27T13:02:45;97365.75;;;18.98;44.72
4814;BME280;15375;48.540;9.268;2023-04-27T13:05:10;97367.69;;;19.07;46.75
4814;BME280;15375;48.540;9.268;2023-04-27T13:07:36;97342.03;;;19.06;44.95
4814;BME280;15375;48.540;9.268;2023-04-27T13:10:02;97369.41;;;19.87;46.16
4814;BME280;15375;48.540;9.268;2023-04-27T13:12:28;97340.97;;;20.01;45.10
4814;BME280;15375;48.540;9.268;2023-04-27T13:14:53;97336.78;;;19.91;41.93
4814;BME280;15375;48.540;9.268;2023-04-27T13:17:19;97328.94;;;18.92;42.69
4814;BME280;15375;48.540;9.268;2023-04-27T13:19:44;97316.38;;;19.06;44.05
4814;BME280;15375;48.540;9.268;2023-04-27T13:22:09;97352.59;;;19.46;43.32